createdAt,value
2022-12-04T00:01:07.584Z,85.16
2022-12-04T00:03:34.832Z,85.51
2022-12-04T00:06:07.389Z,85.92
2022-12-04T00:08:34.239Z,85.92
2022-12-04T00:11:01.504Z,85.94
2022-12-04T00:13:28.042Z,86.15
2022-12-04T00:15:54.705Z,86.37
2022-12-04T00:18:21.436Z,86.00
2022-12-04T00:20:48.565Z,85.85
2022-12-04T00:23:15.210Z,85.89
2022-12-04T00:25:41.760Z,86.69
2022-12-04T00:28:08.943Z,86.50
2022-12-04T00:30:35.629Z,85.80
2022-12-04T00:33:02.157Z,85.78
2022-12-04T00:35:28.704Z,86.11
2022-12-04T00:37:55.259Z,85.73
2022-12-04T00:40:21.788Z,85.97
2022-12-04T00:42:48.357Z,85.92
2022-12-04T00:45:15.053Z,86.19
2022-12-04T00:47:41.607Z,86.45
2022-12-04T00:50:09.079Z,86.86
2022-12-04T00:52:35.593Z,86.30
2022-12-04T00:55:02.114Z,86.92
2022-12-04T00:57:28.761Z,86.15
2022-12-04T00:59:55.616Z,86.62
2022-12-04T01:02:22.791Z,86.27
2022-12-04T01:04:49.409Z,87.13
2022-12-04T01:07:16.035Z,87.19
2022-12-04T01:09:42.637Z,86.58
2022-12-04T01:12:09.213Z,86.86
2022-12-04T01:14:35.920Z,86.66
2022-12-04T01:17:02.511Z,87.53
2022-12-04T01:19:29.151Z,86.95
2022-12-04T01:21:55.884Z,87.37
2022-12-04T01:24:22.424Z,88.32
2022-12-04T01:26:48.937Z,87.25
2022-12-04T01:29:15.478Z,87.88
2022-12-04T01:31:42.094Z,87.50
2022-12-04T01:34:08.675Z,87.90
2022-12-04T01:36:35.164Z,87.25
2022-12-04T01:39:01.727Z,88.28
2022-12-04T01:41:30.903Z,87.80
2022-12-04T01:44:15.669Z,88.25
2022-12-04T01:46:44.858Z,88.33
2022-12-04T01:49:17.346Z,88.19
2022-12-04T01:51:49.106Z,88.66
2022-12-04T01:54:26.804Z,88.60
2022-12-04T01:56:59.101Z,88.89
2022-12-04T01:59:29.468Z,89.02
2022-12-04T02:02:14.969Z,88.63
2022-12-04T02:04:42.766Z,88.87
2022-12-04T02:07:09.756Z,88.56
2022-12-04T02:09:37.492Z,87.97
2022-12-04T02:12:45.745Z,89.09
2022-12-04T02:15:23.579Z,88.16
2022-12-04T02:18:18.004Z,87.98
2022-12-04T02:20:59.193Z,88.14
2022-12-04T02:23:50.036Z,88.30
2022-12-04T02:26:22.581Z,88.58
2022-12-04T02:29:27.208Z,87.49
2022-12-04T02:32:26.728Z,87.67
2022-12-04T02:35:09.718Z,87.47
2022-12-04T02:37:42.116Z,87.18
2022-12-04T02:40:20.011Z,87.67
2022-12-04T02:43:16.428Z,87.66
2022-12-04T02:45:53.364Z,87.67
2022-12-04T02:48:21.917Z,86.58
2022-12-04T02:50:53.261Z,86.40
2022-12-04T02:53:26.904Z,86.48
2022-12-04T02:55:58.538Z,86.55
2022-12-04T02:58:30.787Z,86.13
2022-12-04T03:01:00.392Z,86.16
2022-12-04T03:03:30.369Z,86.66
2022-12-04T03:06:05.609Z,87.23
2022-12-04T03:08:39.449Z,86.99
2022-12-04T03:11:06.322Z,86.38
2022-12-04T03:13:48.907Z,86.22
2022-12-04T03:16:53.927Z,85.38
2022-12-04T03:19:24.885Z,86.24
2022-12-04T03:21:56.313Z,85.65
2022-12-04T03:24:40.282Z,86.10
2022-12-04T03:27:12.705Z,85.89
2022-12-04T03:29:41.759Z,85.67
2022-12-04T03:32:18.937Z,86.11
2022-12-04T03:34:57.767Z,85.21
2022-12-04T03:37:34.831Z,84.89
2022-12-04T03:40:44.899Z,85.15
2022-12-04T03:43:26.492Z,85.66
2022-12-04T03:46:14.581Z,84.73
2022-12-04T03:48:46.807Z,85.13
2022-12-04T03:51:34.174Z,85.47
2022-12-04T03:54:14.281Z,85.92
2022-12-04T03:56:47.263Z,84.95
2022-12-04T03:59:22.645Z,85.66
2022-12-04T04:01:51.495Z,86.02
2022-12-04T04:04:28.065Z,85.70
2022-12-04T04:06:59.247Z,85.95
2022-12-04T04:09:30.397Z,86.32
2022-12-04T04:12:06.787Z,86.94
2022-12-04T04:14:48.057Z,86.47
2022-12-04T04:17:18.290Z,86.92
2022-12-04T04:19:50.905Z,86.61
2022-12-04T04:22:19.848Z,87.35
2022-12-04T04:24:52.109Z,87.08
2022-12-04T04:27:18.692Z,87.14
2022-12-04T04:29:52.004Z,87.51
2022-12-04T04:32:25.684Z,87.45
2022-12-04T04:35:13.726Z,87.84
2022-12-04T04:37:53.955Z,87.77
2022-12-04T04:40:54.887Z,87.47
2022-12-04T04:43:30.368Z,87.86
2022-12-04T04:46:00.216Z,87.20
2022-12-04T04:48:32.986Z,87.45
2022-12-04T04:51:01.603Z,87.59
2022-12-04T04:53:38.582Z,87.50
2022-12-04T04:56:06.827Z,86.72
2022-12-04T04:58:33.659Z,87.56
2022-12-04T05:01:07.424Z,87.15
2022-12-04T05:03:34.662Z,87.75
2022-12-04T05:06:01.254Z,87.63
2022-12-04T05:08:27.820Z,88.32
2022-12-04T05:10:54.530Z,87.76
2022-12-04T05:13:21.675Z,87.94
2022-12-04T05:16:01.683Z,87.80
2022-12-04T05:18:28.873Z,88.00
2022-12-04T05:20:55.663Z,87.49
2022-12-04T05:23:22.272Z,87.46
2022-12-04T05:25:48.839Z,87.25
2022-12-04T05:28:15.740Z,87.10
2022-12-04T05:30:42.768Z,87.47
2022-12-04T05:33:10.542Z,88.16
2022-12-04T05:35:37.058Z,87.71
2022-12-04T05:38:03.822Z,87.28
2022-12-04T05:40:30.308Z,87.44
2022-12-04T05:42:57.289Z,87.52
2022-12-04T05:45:23.782Z,87.85
2022-12-04T05:47:50.306Z,87.97
2022-12-04T05:50:17.024Z,87.17
2022-12-04T05:52:43.735Z,87.97
2022-12-04T05:55:10.226Z,88.20
2022-12-04T05:57:37.007Z,87.83
2022-12-04T06:00:04.999Z,87.75
2022-12-04T06:02:37.949Z,87.64
2022-12-04T06:05:04.969Z,87.60
2022-12-04T06:07:31.648Z,87.17
2022-12-04T06:09:58.560Z,87.86
2022-12-04T06:12:25.180Z,87.97
2022-12-04T06:14:51.721Z,87.27
2022-12-04T06:17:18.241Z,87.65
2022-12-04T06:19:44.813Z,88.18
2022-12-04T06:22:11.342Z,87.46
2022-12-04T06:24:39.491Z,87.12
2022-12-04T06:29:53.294Z,87.90
2022-12-04T06:32:22.015Z,87.57
2022-12-04T06:34:53.683Z,87.72
2022-12-04T06:37:22.848Z,87.60
2022-12-04T06:39:49.584Z,87.38
2022-12-04T06:42:16.379Z,87.06
2022-12-04T06:44:42.958Z,87.21
2022-12-04T06:47:09.730Z,87.70
2022-12-04T06:49:36.247Z,87.72
2022-12-04T06:52:02.884Z,87.85
2022-12-04T06:54:29.386Z,87.58
2022-12-04T06:56:55.911Z,87.36
2022-12-04T06:59:22.651Z,87.75
2022-12-04T07:01:49.242Z,87.56
2022-12-04T07:04:15.787Z,87.61
2022-12-04T07:06:42.735Z,87.40
2022-12-04T07:09:11.709Z,87.45
2022-12-04T07:11:40.228Z,86.65
2022-12-04T07:14:07.383Z,86.78
2022-12-04T07:16:38.642Z,87.27
2022-12-04T07:19:07.311Z,86.95
2022-12-04T07:21:34.124Z,87.28
2022-12-04T07:24:01.701Z,87.32
2022-12-04T07:26:29.969Z,86.99
2022-12-04T07:28:57.432Z,86.74
2022-12-04T07:31:25.393Z,86.65
2022-12-04T07:33:52.423Z,87.21
2022-12-04T07:36:20.968Z,87.56
2022-12-04T07:38:47.936Z,87.65
2022-12-04T07:41:14.885Z,87.62
2022-12-04T07:43:42.285Z,87.57
2022-12-04T07:46:12.834Z,87.31
2022-12-04T07:48:40.146Z,87.28
2022-12-04T07:51:16.180Z,87.64
2022-12-04T07:53:43.854Z,87.79
2022-12-04T07:56:11.676Z,88.20
2022-12-04T07:58:38.800Z,88.08
2022-12-04T08:01:06.378Z,87.93
2022-12-04T08:03:33.447Z,87.98
2022-12-04T08:06:05.038Z,87.69
2022-12-04T08:08:32.269Z,87.95
2022-12-04T08:10:59.329Z,88.28
2022-12-04T08:13:26.128Z,87.48
2022-12-04T08:15:53.006Z,87.51
2022-12-04T08:18:19.600Z,88.56
2022-12-04T08:20:46.274Z,88.31
2022-12-04T08:23:12.823Z,88.20
2022-12-04T08:25:40.735Z,88.43
2022-12-04T08:28:08.348Z,87.55
2022-12-04T08:30:35.773Z,88.32
2022-12-04T08:33:02.761Z,88.16
2022-12-04T08:35:29.330Z,88.75
2022-12-04T08:37:55.902Z,87.94
2022-12-04T08:40:22.451Z,87.73
2022-12-04T08:42:48.983Z,88.03
2022-12-04T08:45:15.544Z,88.13
2022-12-04T08:47:42.264Z,87.79
2022-12-04T08:50:09.129Z,87.94
2022-12-04T08:52:35.738Z,88.01
2022-12-04T08:55:02.290Z,88.62
2022-12-04T08:57:28.967Z,88.74
2022-12-04T08:59:55.823Z,88.41
2022-12-04T09:02:22.537Z,87.90
2022-12-04T09:04:49.087Z,87.75
2022-12-04T09:07:15.748Z,88.79
2022-12-04T09:09:48.040Z,88.00
2022-12-04T09:12:15.296Z,87.57
2022-12-04T09:14:44.791Z,88.36
2022-12-04T09:17:13.684Z,88.75
2022-12-04T09:19:40.969Z,88.89
2022-12-04T09:22:07.554Z,87.91
2022-12-04T09:24:34.285Z,87.69
2022-12-04T09:27:01.895Z,88.64
2022-12-04T09:29:28.518Z,88.50
2022-12-04T09:31:55.127Z,87.73
2022-12-04T09:34:21.687Z,87.70
2022-12-04T09:36:48.297Z,88.48
2022-12-04T09:39:14.887Z,88.19
2022-12-04T09:42:05.114Z,87.82
2022-12-04T09:44:31.733Z,88.11
2022-12-04T09:47:00.649Z,88.08
2022-12-04T09:49:42.127Z,87.61
2022-12-04T09:52:38.104Z,87.89
2022-12-04T09:55:06.475Z,88.09
2022-12-04T09:57:40.614Z,87.83
2022-12-04T10:00:12.876Z,88.07
2022-12-04T10:02:42.107Z,87.79
2022-12-04T10:05:17.492Z,87.34
2022-12-04T10:07:52.159Z,88.04
2022-12-04T10:10:41.391Z,88.56
2022-12-04T10:13:29.243Z,88.78
2022-12-04T10:16:07.889Z,87.63
2022-12-04T10:19:12.718Z,88.27
2022-12-04T10:22:20.686Z,88.05
2022-12-04T10:24:51.599Z,88.06
2022-12-04T10:27:28.829Z,87.87
2022-12-04T10:30:14.351Z,88.74
2022-12-04T10:32:44.545Z,88.39
2022-12-04T10:35:22.988Z,88.13
2022-12-04T10:37:55.857Z,88.07
2022-12-04T10:40:28.177Z,87.94
2022-12-04T10:43:22.216Z,88.39
2022-12-04T10:45:48.761Z,88.05
2022-12-04T10:48:35.086Z,87.89
2022-12-04T10:51:01.707Z,88.30
2022-12-04T10:53:36.993Z,88.43
2022-12-04T10:56:25.089Z,87.27
2022-12-04T10:59:21.377Z,88.13
2022-12-04T11:01:49.131Z,87.75
2022-12-04T11:04:23.332Z,87.42
2022-12-04T11:06:49.860Z,88.17
2022-12-04T11:09:25.522Z,87.86
2022-12-04T11:11:52.296Z,87.52
2022-12-04T11:14:22.729Z,87.90
2022-12-04T11:17:00.194Z,87.42
2022-12-04T11:19:29.353Z,87.58
2022-12-04T11:22:00.218Z,87.70
2022-12-04T11:24:32.420Z,88.16
2022-12-04T11:26:59.558Z,87.41
2022-12-04T11:29:33.187Z,87.33
2022-12-04T11:32:07.230Z,87.49
2022-12-04T11:34:40.958Z,86.84
2022-12-04T11:37:21.000Z,87.36
2022-12-04T11:39:48.208Z,87.18
2022-12-04T11:42:23.187Z,86.89
2022-12-04T11:45:13.266Z,87.53
2022-12-04T11:47:39.807Z,87.09
2022-12-04T11:50:22.714Z,86.55
2022-12-04T11:53:04.142Z,87.75
2022-12-04T11:55:43.080Z,87.29
2022-12-04T11:58:34.582Z,86.15
2022-12-04T12:01:19.924Z,87.04
2022-12-04T12:04:40.744Z,86.19
2022-12-04T12:07:35.356Z,86.43
2022-12-04T12:10:11.171Z,87.17
2022-12-04T12:13:11.194Z,85.82
2022-12-04T12:16:01.871Z,85.65
2022-12-04T12:18:38.619Z,85.88
2022-12-04T12:21:27.668Z,86.62
2022-12-04T12:24:11.563Z,86.28
2022-12-04T12:26:45.770Z,86.23
2022-12-04T12:29:12.281Z,85.67
2022-12-04T12:31:58.242Z,86.09
2022-12-04T12:34:27.982Z,86.57
2022-12-04T12:37:00.720Z,86.61
2022-12-04T12:39:38.399Z,86.18
2022-12-04T12:42:12.418Z,86.11
2022-12-04T12:45:04.446Z,85.67
2022-12-04T12:47:40.299Z,85.78
2022-12-04T12:50:22.961Z,85.12
2022-12-04T12:52:58.164Z,86.14
2022-12-04T12:55:36.777Z,86.29
2022-12-04T12:58:24.808Z,85.83
2022-12-04T13:01:17.487Z,85.61
2022-12-04T13:03:49.688Z,85.68
2022-12-04T13:06:21.915Z,86.13
2022-12-04T13:09:05.267Z,86.26
2022-12-04T13:11:32.803Z,85.69
2022-12-04T13:14:02.316Z,85.48
2022-12-04T13:16:35.881Z,85.07
2022-12-04T13:19:13.352Z,85.98
2022-12-04T13:21:56.519Z,85.80
2022-12-04T13:24:23.044Z,86.05
2022-12-04T13:27:02.078Z,85.88
2022-12-04T13:29:58.156Z,86.06
2022-12-04T13:32:55.373Z,85.38
2022-12-04T13:35:27.729Z,85.43
2022-12-04T13:38:32.941Z,84.72
2022-12-04T13:41:06.355Z,84.89
2022-12-04T13:43:45.935Z,85.96
2022-12-04T13:46:36.313Z,85.14
2022-12-04T13:49:31.089Z,85.90
2022-12-04T13:51:59.993Z,85.24
2022-12-04T13:54:35.894Z,84.99
2022-12-04T13:57:14.564Z,84.64
2022-12-04T13:59:41.555Z,85.40
2022-12-04T14:02:28.346Z,85.06
2022-12-04T14:05:01.413Z,85.10
2022-12-04T14:07:32.159Z,85.36
2022-12-04T14:10:02.349Z,84.81
2022-12-04T14:12:33.801Z,84.89
2022-12-04T14:15:06.547Z,84.92
2022-12-04T14:17:36.165Z,85.06
2022-12-04T14:20:21.459Z,84.90
2022-12-04T14:22:47.979Z,85.18
2022-12-04T14:25:14.465Z,85.61
2022-12-04T14:27:41.044Z,85.35
2022-12-04T14:30:37.732Z,85.12
2022-12-04T14:33:19.002Z,85.12
2022-12-04T14:36:25.847Z,84.80
2022-12-04T14:39:11.812Z,84.74
2022-12-04T14:41:38.750Z,84.87
2022-12-04T14:44:05.539Z,84.03
2022-12-04T14:46:43.015Z,84.31
2022-12-04T14:49:37.152Z,84.06
2022-12-04T14:52:19.584Z,84.21
2022-12-04T14:54:49.152Z,83.68
2022-12-04T14:57:49.674Z,82.85
2022-12-04T15:00:22.346Z,82.46
2022-12-04T15:02:52.727Z,83.32
2022-12-04T15:05:27.011Z,82.63
2022-12-04T15:07:59.215Z,83.00
2022-12-04T15:10:29.423Z,83.20
2022-12-04T15:12:56.267Z,83.20
2022-12-04T15:15:28.522Z,82.52
2022-12-04T15:18:03.588Z,82.46
2022-12-04T15:20:38.900Z,82.51
2022-12-04T15:23:06.124Z,81.77
2022-12-04T15:25:43.746Z,81.51
2022-12-04T15:28:18.511Z,81.40
2022-12-04T15:30:46.219Z,81.95
2022-12-04T15:33:25.854Z,80.88
2022-12-04T15:36:05.841Z,80.02
2022-12-04T15:38:33.279Z,80.96
2022-12-04T15:41:00.962Z,81.13
2022-12-04T15:43:42.323Z,80.79
2022-12-04T15:46:14.599Z,80.13
2022-12-04T15:48:46.364Z,80.55
2022-12-04T15:51:15.991Z,80.85
2022-12-04T15:53:45.787Z,80.91
2022-12-04T15:56:22.177Z,80.71
2022-12-04T15:58:56.758Z,80.39
2022-12-04T16:01:23.739Z,80.29
2022-12-04T16:03:53.159Z,81.12
2022-12-04T16:06:19.807Z,80.44
2022-12-04T16:09:08.400Z,80.92
2022-12-04T16:11:37.627Z,80.43
2022-12-04T16:14:09.070Z,80.81
2022-12-04T16:16:37.670Z,80.90
2022-12-04T16:19:20.227Z,80.77
2022-12-04T16:21:46.884Z,80.56
2022-12-04T16:24:13.431Z,81.64
2022-12-04T16:26:40.881Z,81.83
2022-12-04T16:29:07.579Z,81.70
2022-12-04T16:31:34.613Z,82.01
2022-12-04T16:34:01.143Z,81.75
2022-12-04T16:36:27.736Z,81.30
2022-12-04T16:38:54.225Z,81.46
2022-12-04T16:41:20.818Z,82.40
2022-12-04T16:43:54.325Z,83.12
2022-12-04T16:46:23.758Z,82.71
2022-12-04T16:48:50.864Z,82.78
2022-12-04T16:51:21.816Z,82.42
2022-12-04T16:53:50.279Z,83.27
2022-12-04T16:56:16.816Z,82.72
2022-12-04T16:58:43.379Z,82.86
2022-12-04T17:01:35.278Z,83.57
2022-12-04T17:04:01.865Z,83.48
2022-12-04T17:06:28.466Z,83.01
2022-12-04T17:08:54.998Z,83.39
2022-12-04T17:11:21.522Z,83.00
2022-12-04T17:13:48.130Z,83.22
2022-12-04T17:16:15.374Z,82.59
2022-12-04T17:18:43.159Z,82.87
2022-12-04T17:21:11.861Z,83.61
2022-12-04T17:23:38.729Z,83.49
2022-12-04T17:26:08.118Z,84.39
2022-12-04T17:28:35.089Z,83.97
2022-12-04T17:31:01.952Z,83.78
2022-12-04T17:33:28.583Z,84.72
2022-12-04T17:35:55.143Z,84.01
2022-12-04T17:38:21.964Z,84.53
2022-12-04T17:41:02.884Z,84.56
2022-12-04T17:43:31.067Z,84.82
2022-12-04T17:45:58.288Z,85.37
2022-12-04T17:48:25.759Z,85.42
2022-12-04T17:51:04.323Z,85.65
2022-12-04T17:53:30.897Z,85.21
2022-12-04T17:56:02.472Z,85.73
2022-12-04T17:58:30.719Z,86.26
2022-12-04T18:01:21.461Z,85.91
2022-12-04T18:03:59.795Z,85.84
2022-12-04T18:06:31.767Z,86.38
2022-12-04T18:08:58.837Z,86.42
2022-12-04T18:11:29.623Z,86.64
2022-12-04T18:14:11.916Z,87.57
2022-12-04T18:16:47.096Z,86.82
2022-12-04T18:19:14.344Z,87.24
2022-12-04T18:21:41.027Z,86.60
2022-12-04T18:24:07.932Z,86.66
2022-12-04T18:26:40.187Z,87.68
2022-12-04T18:29:08.042Z,87.60
2022-12-04T18:31:35.103Z,88.00
2022-12-04T18:34:01.791Z,87.91
2022-12-04T18:36:30.628Z,87.95
2022-12-04T18:39:01.181Z,88.39
2022-12-04T18:41:28.916Z,87.72
2022-12-04T18:43:56.661Z,88.40
2022-12-04T18:46:23.487Z,88.06
2022-12-04T18:48:53.856Z,88.48
2022-12-04T18:51:21.614Z,88.64
2022-12-04T18:53:49.397Z,87.71
2022-12-04T18:56:16.615Z,89.17
2022-12-04T18:58:43.405Z,88.97
2022-12-04T19:01:12.092Z,88.26
2022-12-04T19:03:38.769Z,88.35
2022-12-04T19:06:06.303Z,88.59
2022-12-04T19:08:36.574Z,88.32
2022-12-04T19:11:14.357Z,88.98
2022-12-04T19:13:41.907Z,88.44
2022-12-04T19:16:16.852Z,88.30
2022-12-04T19:18:43.980Z,88.66
2022-12-04T19:21:11.362Z,89.04
2022-12-04T19:23:37.955Z,88.90
2022-12-04T19:26:04.597Z,88.71
2022-12-04T19:28:31.482Z,88.84
2022-12-04T19:30:58.280Z,89.26
2022-12-04T19:33:25.228Z,89.47
2022-12-04T19:36:03.956Z,89.02
2022-12-04T19:38:31.715Z,90.09
2022-12-04T19:41:11.541Z,89.27
2022-12-04T19:43:43.266Z,89.28
2022-12-04T19:46:10.716Z,90.54
2022-12-04T19:48:38.036Z,89.50
2022-12-04T19:51:11.478Z,88.89
2022-12-04T19:53:41.099Z,90.15
2022-12-04T19:56:29.552Z,89.45
2022-12-04T19:59:01.687Z,89.96
2022-12-04T20:01:29.414Z,90.20
2022-12-04T20:03:56.899Z,89.53
2022-12-04T20:06:28.131Z,90.39
2022-12-04T20:08:57.571Z,90.14
2022-12-04T20:11:25.125Z,89.93
2022-12-04T20:13:52.233Z,90.70
2022-12-04T20:16:18.794Z,90.34
2022-12-04T20:18:45.630Z,90.76
2022-12-04T20:21:13.369Z,90.56
2022-12-04T20:23:41.926Z,90.89
2022-12-04T20:26:11.354Z,90.49
2022-12-04T20:28:38.144Z,90.88
2022-12-04T20:31:32.985Z,91.41
2022-12-04T20:34:01.586Z,91.19
2022-12-04T20:36:30.396Z,90.80
2022-12-04T20:38:58.670Z,91.36
2022-12-04T20:41:29.678Z,91.17
2022-12-04T20:43:59.199Z,90.72
2022-12-04T20:46:32.098Z,90.62
2022-12-04T20:48:59.876Z,90.59
2022-12-04T20:51:38.490Z,91.29
2022-12-04T20:54:05.908Z,91.82
2022-12-04T20:56:34.762Z,91.55
2022-12-04T20:59:07.055Z,91.34
2022-12-04T21:01:34.122Z,90.97
2022-12-04T21:04:01.571Z,91.71
2022-12-04T21:06:35.159Z,91.18
2022-12-04T21:09:04.154Z,91.58
2022-12-04T21:11:40.029Z,91.19
2022-12-04T21:14:10.948Z,91.00
2022-12-04T21:16:37.585Z,92.21
2022-12-04T21:19:06.180Z,92.09
2022-12-04T21:21:33.547Z,92.09
2022-12-04T21:24:00.520Z,92.56
2022-12-04T21:26:27.270Z,92.57
2022-12-04T21:28:53.945Z,92.22
2022-12-04T21:31:20.871Z,92.13
2022-12-04T21:33:47.515Z,92.15
2022-12-04T21:36:14.326Z,92.75
2022-12-04T21:38:40.918Z,92.91
2022-12-04T21:41:09.789Z,92.94
2022-12-04T21:43:37.177Z,92.47
2022-12-04T21:46:09.474Z,92.20
2022-12-04T21:48:36.504Z,93.34
2022-12-04T21:51:16.810Z,92.49
2022-12-04T21:53:53.998Z,92.31
2022-12-04T21:56:22.424Z,93.77
2022-12-04T21:58:49.290Z,92.79
2022-12-04T22:01:18.457Z,93.02
2022-12-04T22:03:45.531Z,93.03
2022-12-04T22:06:12.328Z,93.32
2022-12-04T22:08:41.601Z,92.99
2022-12-04T22:11:10.102Z,92.95
2022-12-04T22:13:37.411Z,93.66
2022-12-04T22:16:06.440Z,93.04
2022-12-04T22:18:33.811Z,93.79
2022-12-04T22:21:08.687Z,93.40
2022-12-04T22:23:35.581Z,93.60
2022-12-04T22:26:13.710Z,93.27
2022-12-04T22:28:41.004Z,94.17
2022-12-04T22:31:11.384Z,93.08
2022-12-04T22:33:39.138Z,93.56
2022-12-04T22:36:12.042Z,94.14
2022-12-04T22:38:58.704Z,93.40
2022-12-04T22:41:26.839Z,93.46
2022-12-04T22:43:53.433Z,93.59
2022-12-04T22:46:20.329Z,93.28
2022-12-04T22:48:46.908Z,93.79
2022-12-04T22:51:19.835Z,94.08
2022-12-04T22:53:49.086Z,93.70
2022-12-04T22:56:18.793Z,93.78
2022-12-04T22:58:45.478Z,93.07
2022-12-04T23:01:18.080Z,93.68
2022-12-04T23:03:45.595Z,93.17
2022-12-04T23:06:13.415Z,93.87
2022-12-04T23:08:41.525Z,93.24
2022-12-04T23:11:14.301Z,93.18
2022-12-04T23:13:41.697Z,93.29
2022-12-04T23:16:10.098Z,93.49
2022-12-04T23:18:37.655Z,93.24
2022-12-04T23:21:08.986Z,93.42
2022-12-04T23:23:40.671Z,93.64
2022-12-04T23:26:08.902Z,93.83
2022-12-04T23:28:36.068Z,94.54
2022-12-04T23:31:03.421Z,93.57
2022-12-04T23:33:30.737Z,94.21
2022-12-04T23:35:59.229Z,94.56
2022-12-04T23:38:27.772Z,93.92
2022-12-04T23:41:22.410Z,93.81
2022-12-04T23:43:50.264Z,93.48
2022-12-04T23:46:21.170Z,94.54
2022-12-04T23:48:48.024Z,93.64
2022-12-04T23:51:17.250Z,93.88
2022-12-04T23:53:44.803Z,93.77
2022-12-04T23:56:18.030Z,94.26
2022-12-04T23:58:46.666Z,94.47
